Time;durP1;ratioP1;P1;durP2;ratioP2;P2;SDS_P1;SDS_P2;PMS_P1;PMS_P2;Temp;Humidity;BMP_temperature;BMP_pressure;BME280_temperature;BME280_humidity;BME280_pressure;Samples;Min_cycle;Max_cycle;Signal;HPM_P1;HPM_P2
2022/03/18 00:00:56;;;;;;;21.40;8.90;;;;;;;;;;4993950;28;20046;-69
2022/03/18 00:03:22;;;;;;;28.60;9.55;;;;;;;;;;4993712;28;20046;-69
2022/03/18 00:05:49;;;;;;;27.75;9.85;;;;;;;;;;4993842;28;20054;-69
2022/03/18 00:08:15;;;;;;;22.13;9.65;;;3.20;99.90;;;;;;4993606;28;20054;-68
2022/03/18 00:10:41;;;;;;;25.60;9.57;;;;;;;;;;4993532;28;20047;-68
2022/03/18 00:13:07;;;;;;;21.50;9.95;;;3.00;99.90;;;;;;4993758;28;20395;-69
2022/03/18 00:15:33;;;;;;;28.25;11.02;;;;;;;;;;4993655;28;20061;-69
2022/03/18 00:17:59;;;;;;;25.92;11.52;;;3.30;99.90;;;;;;4993591;28;20050;-69
2022/03/18 00:20:25;;;;;;;25.25;12.00;;;;;;;;;;4992207;28;20046;-68
2022/03/18 00:22:51;;;;;;;;;;;3.30;99.90;;;;;;4993806;28;20046;-68
2022/03/18 00:25:18;;;;;;;29.05;11.48;;;3.30;99.90;;;;;;4992692;28;19925;-69
2022/03/18 00:27:46;;;;;;;28.55;12.27;;;3.30;99.90;;;;;;4993149;28;20053;-69
2022/03/18 00:30:14;;;;;;;35.95;13.52;;;3.10;99.90;;;;;;4993176;28;20129;-69
2022/03/18 00:32:41;;;;;;;34.67;13.50;;;;;;;;;;4993188;28;20043;-68
2022/03/18 00:35:08;;;;;;;46.72;13.63;;;3.40;99.90;;;;;;4992186;28;20097;-69
2022/03/18 00:37:37;;;;;;;39.90;14.48;;;3.60;99.90;;;;;;4992719;28;20059;-69
2022/03/18 00:40:05;;;;;;;32.47;14.20;;;;;;;;;;4993353;28;20096;-68
2022/03/18 00:42:34;;;;;;;25.63;13.68;;;;;;;;;;4993090;28;20042;-68
2022/03/18 00:45:01;;;;;;;29.60;14.13;;;;;;;;;;4993172;28;20050;-69
2022/03/18 00:52:56;;;;;;;35.25;15.43;;;3.90;99.90;;;;;;4993149;28;20057;-69
2022/03/18 00:55:22;;;;;;;33.95;15.32;;;4.00;99.90;;;;;;4993035;28;20506;-70
2022/03/18 00:57:47;;;;;;;36.63;15.60;;;4.00;99.90;;;;;;4992006;28;20479;-69
2022/03/18 01:00:13;;;;;;;29.33;14.73;;;;;;;;;;4992867;28;20406;-69
2022/03/18 01:02:39;;;;;;;37.03;15.63;;;;;;;;;;4992767;28;20049;-69
2022/03/18 01:05:07;;;;;;;32.08;15.10;;;4.20;99.90;;;;;;4993072;28;20055;-69
2022/03/18 01:07:33;;;;;;;38.45;15.52;;;;;;;;;;4992961;28;20058;-69
2022/03/18 01:09:59;;;;;;;36.35;14.65;;;4.10;99.90;;;;;;4992899;28;20047;-69
2022/03/18 01:12:25;;;;;;;33.40;15.48;;;;;;;;;;4992706;28;20403;-69
2022/03/18 01:14:52;;;;;;;34.55;15.40;;;4.20;99.90;;;;;;4992770;28;20042;-68
2022/03/18 01:17:18;;;;;;;27.42;13.80;;;4.10;99.90;;;;;;4992619;28;20054;-69
2022/03/18 01:19:44;;;;;;;34.83;14.35;;;4.30;99.90;;;;;;4992922;28;20050;-69
2022/03/18 01:22:10;;;;;;;28.15;13.02;;;4.40;99.90;;;;;;4992612;28;20048;-69
2022/03/18 01:24:37;;;;;;;35.15;13.75;;;4.10;99.90;;;;;;4992629;28;20383;-69
2022/03/18 01:27:06;;;;;;;31.27;13.90;;;4.40;99.90;;;;;;4992678;28;20494;-69
2022/03/18 01:29:32;;;;;;;29.25;14.13;;;;;;;;;;4991547;28;20078;-69
2022/03/18 01:31:59;;;;;;;27.73;12.60;;;;;;;;;;4991212;28;20466;-69
2022/03/18 01:34:25;;;;;;;30.13;12.98;;;4.00;99.90;;;;;;4992565;28;20050;-69
2022/03/18 01:36:51;;;;;;;32.25;12.90;;;3.90;99.90;;;;;;4992888;28;20091;-68
2022/03/18 01:39:17;;;;;;;30.95;12.30;;;3.80;99.90;;;;;;4996411;28;20057;-68
2022/03/18 01:41:43;;;;;;;24.95;12.57;;;3.80;99.90;;;;;;4996425;28;20087;-69
2022/03/18 01:44:12;;;;;;;32.42;13.25;;;3.90;99.90;;;;;;4996148;28;20038;-69
2022/03/18 01:46:39;;;;;;;27.60;12.40;;;;;;;;;;4996137;28;20482;-69
2022/03/18 01:49:08;;;;;;;30.10;13.35;;;;;;;;;;4996460;28;20336;-69
2022/03/18 01:51:34;;;;;;;27.85;13.57;;;;;;;;;;4996216;28;20046;-69
2022/03/18 01:56:44;;;;;;;37.10;13.23;;;3.70;99.90;;;;;;4994845;28;20454;-68
2022/03/18 01:59:13;;;;;;;32.13;14.50;;;;;;;;;;4995890;28;20125;-69
2022/03/18 02:01:39;;;;;;;36.50;15.07;;;3.80;99.90;;;;;;4996173;28;20061;-70
2022/03/18 02:04:04;;;;;;;29.40;15.02;;;3.80;99.90;;;;;;4996030;28;20051;-69
2022/03/18 02:06:31;;;;;;;32.63;14.95;;;;;;;;;;4994707;28;20082;-69
2022/03/18 02:08:57;;;;;;;29.45;15.10;;;;;;;;;;4995847;28;20080;-69
2022/03/18 02:11:23;;;;;;;32.40;15.00;;;4.00;99.90;;;;;;4994498;28;20736;-69
2022/03/18 02:13:50;;;;;;;;;;;4.20;99.90;;;;;;4996031;28;20125;-69
2022/03/18 02:16:16;;;;;;;31.50;14.70;;;;;;;;;;4996035;28;19922;-69
2022/03/18 02:18:42;;;;;;;43.35;14.98;;;;;;;;;;4995658;28;20069;-69
2022/03/18 02:21:08;;;;;;;33.20;15.23;;;4.50;99.90;;;;;;4995629;28;20479;-69
2022/03/18 02:23:34;;;;;;;28.33;15.27;;;4.40;99.90;;;;;;4995693;28;20082;-69
2022/03/18 02:26:00;;;;;;;27.65;14.45;;;4.30;99.90;;;;;;4995434;28;20525;-69
2022/03/18 02:28:26;;;;;;;32.03;14.90;;;4.50;99.90;;;;;;4995471;28;20051;-69
2022/03/18 02:30:52;;;;;;;33.03;13.68;;;;;;;;;;4995486;28;20038;-68
2022/03/18 02:33:18;;;;;;;34.83;15.13;;;4.50;99.90;;;;;;4995469;28;20092;-69
2022/03/18 02:35:43;;;;;;;23.88;13.70;;;4.50;99.90;;;;;;4995293;28;20510;-69
2022/03/18 02:38:09;;;;;;;32.97;14.18;;;4.30;99.90;;;;;;4995346;28;20395;-69
2022/03/18 02:40:35;;;;;;;27.25;13.68;;;4.50;99.90;;;;;;4995275;28;20050;-69
2022/03/18 02:43:01;;;;;;;30.25;14.45;;;;;;;;;;4993905;28;20120;-69
2022/03/18 02:45:27;;;;;;;29.33;14.48;;;4.20;99.90;;;;;;4995344;28;20046;-69
2022/03/18 02:47:52;;;;;;;37.40;14.45;;;4.10;99.90;;;;;;4994206;28;20111;-69
2022/03/18 02:50:18;;;;;;;33.28;13.85;;;4.40;99.90;;;;;;4994179;28;20061;-70
2022/03/18 02:52:44;;;;;;;30.17;13.13;;;;;;;;;;4995000;28;20077;-69
2022/03/18 02:55:10;;;;;;;33.88;14.45;;;4.80;99.90;;;;;;4977707;28;20120;-69
2022/03/18 02:57:38;;;;;;;28.95;14.40;;;4.40;99.90;;;;;;4994961;28;20394;-69
2022/03/18 03:00:06;;;;;;;30.73;15.05;;;4.60;99.90;;;;;;4995065;28;20533;-70
2022/03/18 03:02:31;;;;;;;28.73;14.95;;;4.50;99.90;;;;;;4994826;28;20093;-69
2022/03/18 03:08:00;;;;;;;30.30;14.77;;;4.60;99.90;;;;;;4994855;28;20053;-69
2022/03/18 03:10:28;;;;;;;34.55;15.13;;;5.10;99.90;;;;;;4993665;28;20054;-68
2022/03/18 03:12:54;;;;;;;34.65;15.15;;;4.70;99.90;;;;;;4994796;28;20045;-69
2022/03/18 03:15:20;;;;;;;24.88;14.80;;;4.60;99.90;;;;;;4994609;28;20058;-68
2022/03/18 03:17:46;;;;;;;24.40;14.77;;;4.80;99.90;;;;;;4994606;28;20050;-68
2022/03/18 03:20:11;;;;;;;34.23;16.03;;;4.70;99.90;;;;;;4993443;28;20141;-69
2022/03/18 03:22:37;;;;;;;27.27;16.25;;;4.80;99.90;;;;;;4994440;28;20364;-69
2022/03/18 03:25:03;;;;;;;32.42;15.48;;;4.80;99.90;;;;;;4994664;28;20789;-69
2022/03/18 03:27:30;;;;;;;28.25;15.02;;;4.80;99.90;;;;;;4993451;28;20058;-69
2022/03/18 03:30:01;;;;;;;26.10;15.43;;;4.80;99.90;;;;;;4993473;28;20046;-68
2022/03/18 03:32:27;;;;;;;31.92;15.60;;;4.70;99.90;;;;;;4994313;28;20046;-69
2022/03/18 03:34:54;;;;;;;27.95;15.75;;;4.80;99.90;;;;;;4993014;28;20183;-69
2022/03/18 03:37:20;;;;;;;32.85;15.05;;;5.10;99.90;;;;;;4994298;28;20415;-69
2022/03/18 03:39:46;;;;;;;31.70;14.80;;;5.00;99.90;;;;;;4994374;28;20053;-68
2022/03/18 03:42:12;;;;;;;29.58;14.82;;;5.20;99.90;;;;;;4994207;28;20046;-69
2022/03/18 03:44:37;;;;;;;25.55;14.80;;;5.10;99.90;;;;;;4994253;28;20178;-69
2022/03/18 03:47:03;;;;;;;28.73;14.27;;;5.10;99.90;;;;;;4994041;28;20049;-69
2022/03/18 03:49:29;;;;;;;31.25;15.27;;;5.20;99.90;;;;;;4992906;28;20057;-69
2022/03/18 03:51:54;;;;;;;27.13;15.05;;;5.10;99.90;;;;;;4992862;28;20058;-69
2022/03/18 03:54:20;;;;;;;32.10;15.20;;;5.10;99.90;;;;;;4992770;28;20046;-69
2022/03/18 03:56:46;;;;;;;27.38;14.82;;;5.00;99.90;;;;;;4993809;28;20046;-69
2022/03/18 03:59:11;;;;;;;25.15;15.10;;;5.50;99.90;;;;;;4993841;28;20057;-69
2022/03/18 04:01:38;;;;;;;32.42;15.80;;;5.20;99.90;;;;;;4993673;28;20058;-69
2022/03/18 04:04:04;;;;;;;29.55;15.77;;;;;;;;;;4993642;28;20047;-70
2022/03/18 04:06:31;;;;;;;25.20;15.93;;;5.50;99.90;;;;;;4993600;28;20046;-69
2022/03/18 04:08:56;;;;;;;;;;;5.40;99.90;;;;;;4994076;28;20141;-69
2022/03/18 04:11:22;;;;;;;28.42;15.48;;;5.50;99.90;;;;;;4993448;28;19972;-69
2022/03/18 04:13:48;;;;;;;36.88;14.85;;;5.00;99.90;;;;;;4992187;28;20057;-69
2022/03/18 04:16:15;;;;;;;26.08;16.13;;;5.20;99.90;;;;;;4993577;28;20056;-69
2022/03/18 04:18:41;;;;;;;26.55;15.60;;;5.10;99.90;;;;;;4993391;28;20055;-69
2022/03/18 04:21:07;;;;;;;24.38;14.45;;;5.20;99.90;;;;;;4993383;28;20077;-69
2022/03/18 04:23:32;;;;;;;27.55;15.80;;;5.30;99.90;;;;;;4993620;28;20494;-69
2022/03/18 04:25:58;;;;;;;26.33;15.15;;;5.30;99.90;;;;;;4993364;28;20086;-69
2022/03/18 04:28:24;;;;;;;29.20;15.02;;;5.30;99.90;;;;;;4993463;28;20046;-69
2022/03/18 04:30:49;;;;;;;26.95;14.85;;;5.20;99.90;;;;;;4993139;28;20057;-70
2022/03/18 04:33:15;;;;;;;31.08;16.15;;;4.90;99.90;;;;;;4992055;28;20093;-69
2022/03/18 04:35:41;;;;;;;29.00;15.20;;;5.30;99.90;;;;;;4993084;28;20047;-69
2022/03/18 04:38:07;;;;;;;29.25;15.02;;;5.00;99.90;;;;;;4993417;28;20062;-69
2022/03/18 04:40:33;;;;;;;26.13;15.07;;;5.10;99.90;;;;;;4993153;28;20046;-69
2022/03/18 04:42:58;;;;;;;26.48;15.63;;;4.90;99.90;;;;;;4993263;28;20050;-69
2022/03/18 04:45:24;;;;;;;28.38;15.45;;;4.70;99.90;;;;;;4993188;28;20499;-69
2022/03/18 04:47:50;;;;;;;26.55;15.52;;;4.80;99.90;;;;;;4993043;28;20053;-69
2022/03/18 04:50:16;;;;;;;29.77;15.40;;;5.00;99.90;;;;;;4993008;28;20057;-69
2022/03/18 04:52:41;;;;;;;24.83;17.23;;;5.00;99.90;;;;;;4993086;28;20050;-69
2022/03/18 04:55:08;;;;;;;30.00;15.82;;;;;;;;;;4993159;28;20078;-69
2022/03/18 04:57:33;;;;;;;;;;;4.60;99.90;;;;;;4993385;28;20050;-69
2022/03/18 04:59:59;;;;;;;22.92;14.60;;;;;;;;;;4993026;28;19925;-69
2022/03/18 05:02:26;;;;;;;25.83;15.55;;;4.50;99.90;;;;;;4992859;28;20450;-69
2022/03/18 05:04:53;;;;;;;27.90;17.25;;;;;;;;;;4992972;28;20117;-69
2022/03/18 05:07:19;;;;;;;29.75;16.27;;;4.50;99.90;;;;;;4992648;28;20466;-69
2022/03/18 05:09:46;;;;;;;26.25;15.75;;;;;;;;;;4992786;28;20054;-69
2022/03/18 05:12:13;;;;;;;25.35;16.17;;;4.50;99.90;;;;;;4993767;28;20046;-68
2022/03/18 05:14:39;;;;;;;31.00;16.45;;;;;;;;;;4996883;28;20054;-69
2022/03/18 05:17:07;;;;;;;25.42;15.90;;;4.00;99.90;;;;;;4996744;28;20494;-70
2022/03/18 05:19:34;;;;;;;28.67;16.90;;;4.20;99.90;;;;;;4996834;28;20054;-69
2022/03/18 05:22:00;;;;;;;25.13;16.92;;;;;;;;;;4997002;28;20046;-69
2022/03/18 05:24:26;;;;;;;31.05;17.60;;;4.10;99.90;;;;;;4996660;28;20046;-69
2022/03/18 05:26:53;;;;;;;28.50;16.30;;;3.90;99.90;;;;;;4996746;28;20120;-69
2022/03/18 05:29:19;;;;;;;28.75;17.48;;;;;;;;;;4995569;28;20059;-69
2022/03/18 05:31:46;;;;;;;26.98;17.33;;;;;;;;;;4996461;28;20066;-69
2022/03/18 05:34:13;;;;;;;29.48;18.10;;;;;;;;;;4996634;28;20046;-69
2022/03/18 05:36:39;;;;;;;34.05;19.13;;;3.90;99.90;;;;;;4996349;28;20062;-69
2022/03/18 05:39:05;;;;;;;28.95;19.70;;;3.80;99.90;;;;;;4996631;28;20078;-70
2022/03/18 05:41:31;;;;;;;34.50;19.00;;;;;;;;;;4996477;28;20042;-69
2022/03/18 05:43:57;;;;;;;33.88;19.90;;;3.80;99.90;;;;;;4995434;28;20140;-69
2022/03/18 05:46:23;;;;;;;29.95;19.45;;;;;;;;;;4996205;28;20050;-69
2022/03/18 05:48:50;;;;;;;38.88;19.90;;;;;;;;;;4996485;28;20144;-69
2022/03/18 05:51:16;;;;;;;37.60;21.15;;;;;;;;;;4996362;28;20058;-69
2022/03/18 05:53:42;;;;;;;36.60;20.92;;;3.50;99.90;;;;;;4996191;28;20474;-69
2022/03/18 05:58:53;;;;;;;33.83;19.73;;;3.60;99.90;;;;;;4995980;28;20073;-69
2022/03/18 06:01:19;;;;;;;34.75;19.55;;;4.10;99.90;;;;;;4996280;28;20057;-69
2022/03/18 06:03:45;;;;;;;28.85;20.13;;;3.80;99.90;;;;;;4995965;28;20046;-69
2022/03/18 06:06:11;;;;;;;37.15;21.23;;;3.90;99.90;;;;;;4996011;28;20061;-69
2022/03/18 06:14:06;;;;;;;34.00;20.13;;;;;;;;;;4996051;28;20095;-69
2022/03/18 06:16:32;;;;;;;32.17;20.58;;;;;;;;;;4995700;28;20068;-69
2022/03/18 06:18:58;;;;;;;34.58;20.70;;;4.00;99.90;;;;;;4995631;28;20515;-69
2022/03/18 06:21:24;;;;;;;35.85;21.63;;;3.80;99.90;;;;;;4995607;28;20050;-69
2022/03/18 06:23:49;;;;;;;40.42;23.17;;;3.60;99.90;;;;;;4995496;28;20105;-69
2022/03/18 06:26:15;;;;;;;34.10;22.90;;;;;;;;;;4996102;28;20056;-69
2022/03/18 06:28:41;;;;;;;36.03;23.05;;;;;;;;;;4995693;28;20050;-69
2022/03/18 06:31:08;;;;;;;38.17;24.00;;;3.60;99.90;;;;;;4994610;28;20085;-69
2022/03/18 06:33:34;;;;;;;44.70;23.40;;;;;;;;;;4995442;28;20042;-69
2022/03/18 06:36:00;;;;;;;39.67;24.05;;;3.90;99.90;;;;;;4995346;28;20054;-69
2022/03/18 06:38:26;;;;;;;31.88;22.20;;;;;;;;;;4995312;28;20528;-70
2022/03/18 06:40:52;;;;;;;37.17;23.40;;;4.10;99.90;;;;;;4995484;28;20510;-69
2022/03/18 06:43:18;;;;;;;37.72;24.38;;;;;;;;;;4995513;28;20090;-69
2022/03/18 06:45:44;;;;;;;35.67;23.77;;;4.00;99.90;;;;;;4995321;28;20050;-69
2022/03/18 06:48:10;;;;;;;45.20;26.05;;;3.80;99.90;;;;;;4995430;28;20050;-69
2022/03/18 06:50:36;;;;;;;37.13;24.50;;;;;;;;;;4994277;28;20509;-67
2022/03/18 06:53:02;;;;;;;41.90;25.92;;;;;;;;;;4994869;28;20054;-69
2022/03/18 06:55:28;;;;;;;39.58;25.23;;;;;;;;;;4995134;28;20125;-69
2022/03/18 06:57:54;;;;;;;40.83;26.00;;;;;;;;;;4995313;28;20050;-69
2022/03/18 07:00:21;;;;;;;47.40;27.58;;;;;;;;;;4994971;28;20073;-69
2022/03/18 07:02:47;;;;;;;41.15;26.65;;;;;;;;;;4994928;28;20064;-70
2022/03/18 07:05:12;;;;;;;50.97;27.90;;;4.60;99.90;;;;;;4998538;28;20042;-68
2022/03/18 07:07:40;;;;;;;52.72;29.30;;;4.60;99.90;;;;;;5010457;28;20128;-69
2022/03/18 07:10:06;;;;;;;54.13;30.42;;;4.80;99.90;;;;;;5012700;28;20050;-72
2022/03/18 07:12:33;;;;;;;53.05;31.83;;;;;;;;;;5012925;28;20103;-70
2022/03/18 07:14:58;;;;;;;55.05;32.85;;;5.00;99.90;;;;;;5013013;28;20066;-69
2022/03/18 07:20:09;;;;;;;54.15;33.97;;;5.40;99.90;;;;;;5010932;28;20060;-69
2022/03/18 07:22:35;;;;;;;66.10;34.75;;;5.50;99.90;;;;;;5013277;28;20505;-69
2022/03/18 07:25:01;;;;;;;59.75;32.08;;;5.70;99.90;;;;;;5012657;28;20049;-69
2022/03/18 07:27:26;;;;;;;57.45;30.98;;;5.70;99.90;;;;;;5012642;28;20068;-70
2022/03/18 07:29:52;;;;;;;62.35;33.00;;;6.00;99.90;;;;;;5011373;28;20426;-69
2022/03/18 07:32:18;;;;;;;58.40;31.75;;;;;;;;;;5011879;28;20504;-69
2022/03/18 07:34:44;;;;;;;63.65;31.95;;;6.30;99.90;;;;;;5011354;28;20498;-71
2022/03/18 07:37:09;;;;;;;62.55;30.35;;;6.20;99.90;;;;;;5009152;28;20060;-69
2022/03/18 07:39:35;;;;;;;54.28;29.00;;;6.60;99.90;;;;;;5011454;28;20085;-69
2022/03/18 07:42:01;;;;;;;62.55;28.63;;;6.60;99.90;;;;;;5011246;28;20068;-69
2022/03/18 07:44:27;;;;;;;;;;;6.80;99.90;;;;;;5012303;28;20058;-69
2022/03/18 07:46:52;;;;;;;53.85;25.48;;;7.00;99.90;;;;;;5012782;28;20421;-68
2022/03/18 07:49:19;;;;;;;50.20;24.35;;;;;;;;;;5009574;28;20433;-69
2022/03/18 07:51:44;;;;;;;49.08;25.10;;;7.00;99.90;;;;;;5027817;28;20060;-69
2022/03/18 07:54:10;;;;;;;67.63;25.50;;;7.20;99.90;;;;;;5011461;28;20422;-69
2022/03/18 07:56:36;;;;;;;45.88;23.10;;;7.20;99.90;;;;;;5011877;28;20046;-68
2022/03/18 07:59:01;;;;;;;44.20;18.25;;;7.40;99.90;;;;;;5010875;28;20482;-69
2022/03/18 08:01:27;;;;;;;50.78;18.63;;;7.60;99.90;;;;;;5012401;28;20128;-70
2022/03/18 08:03:53;;;;;;;42.85;17.75;;;7.60;99.90;;;;;;5012251;28;20045;-69
2022/03/18 08:06:20;;;;;;;54.03;16.88;;;8.00;99.90;;;;;;5011070;28;20057;-69
2022/03/18 08:08:46;;;;;;;41.20;17.48;;;7.90;99.90;;;;;;5012264;28;20077;-68
2022/03/18 08:11:12;;;;;;;47.80;16.13;;;8.10;99.90;;;;;;5009349;28;20088;-69
2022/03/18 08:13:38;;;;;;;43.15;15.55;;;8.20;99.90;;;;;;5012265;28;20054;-69
2022/03/18 08:16:04;;;;;;;45.58;15.80;;;8.10;99.90;;;;;;5012046;28;20045;-69
2022/03/18 08:18:30;;;;;;;34.08;13.10;;;8.20;99.90;;;;;;5010331;28;20104;-71
2022/03/18 08:20:56;;;;;;;34.30;9.63;;;8.70;99.90;;;;;;5010881;28;20061;-69
2022/03/18 08:23:23;;;;;;;32.78;8.98;;;8.60;99.90;;;;;;5011114;28;20437;-69
2022/03/18 08:25:49;;;;;;;36.17;9.38;;;8.90;99.90;;;;;;5011485;28;20104;-69
2022/03/18 08:28:14;;;;;;;35.30;8.23;;;9.10;99.90;;;;;;5012090;28;20037;-69
2022/03/18 08:30:40;;;;;;;28.95;8.15;;;8.90;99.90;;;;;;5010523;28;20049;-69
2022/03/18 08:33:06;;;;;;;35.63;8.82;;;9.00;99.90;;;;;;5011301;28;20045;-68
2022/03/18 08:35:32;;;;;;;26.90;8.05;;;8.90;99.90;;;;;;5011755;28;20061;-69
2022/03/18 08:37:58;;;;;;;39.65;7.85;;;8.90;99.90;;;;;;5012042;28;20093;-69
2022/03/18 08:40:29;;;;;;;32.67;7.22;;;9.30;99.90;;;;;;5008954;28;20158;-69
2022/03/18 08:42:56;;;;;;;40.72;8.77;;;9.10;99.90;;;;;;5011306;28;20045;-69
2022/03/18 08:45:22;;;;;;;28.23;6.75;;;9.70;99.90;;;;;;5011475;28;20128;-70
2022/03/18 08:47:48;;;;;;;21.75;6.78;;;9.70;99.90;;;;;;5011558;28;20054;-70
2022/03/18 08:50:14;;;;;;;31.45;6.95;;;9.70;99.90;;;;;;5011408;28;20053;-70
2022/03/18 08:52:41;;;;;;;34.10;7.50;;;10.90;99.90;;;;;;5012425;28;20099;-70
2022/03/18 08:55:07;;;;;;;;;;;9.70;99.90;;;;;;5012628;28;20045;-68
2022/03/18 08:57:35;;;;;;;27.08;6.85;;;9.70;99.90;;;;;;5012183;28;19921;-68
2022/03/18 09:00:01;;;;;;;24.45;6.57;;;10.10;99.90;;;;;;5012438;28;20053;-67
2022/03/18 09:02:27;;;;;;;27.23;6.97;;;10.40;99.90;;;;;;5012234;28;20048;-67
2022/03/18 09:04:52;;;;;;;29.67;7.10;;;9.80;99.90;;;;;;5012324;28;20462;-69
2022/03/18 09:07:19;;;;;;;37.72;7.68;;;10.00;99.90;;;;;;5012577;28;20045;-70
2022/03/18 09:09:45;;;;;;;30.15;6.97;;;10.00;99.90;;;;;;5012212;28;20045;-70
2022/03/18 09:12:10;;;;;;;22.00;5.63;;;10.00;99.90;;;;;;5012261;28;20038;-68
2022/03/18 09:14:36;;;;;;;21.75;6.18;;;10.30;99.90;;;;;;5012375;28;20385;-68
2022/03/18 09:17:02;;;;;;;28.52;7.03;;;9.90;99.90;;;;;;4998033;28;20050;-68
2022/03/18 09:19:28;;;;;;;25.73;5.82;;;9.70;99.90;;;;;;5010937;28;20136;-68
2022/03/18 09:21:54;;;;;;;21.73;5.63;;;11.20;99.90;;;;;;5012270;28;20503;-69
2022/03/18 09:24:19;;;;;;;26.48;5.97;;;10.30;99.90;;;;;;5012475;28;20502;-69
2022/03/18 09:26:45;;;;;;;27.83;6.25;;;10.20;99.90;;;;;;5012239;28;20184;-69
2022/03/18 09:29:12;;;;;;;31.67;6.90;;;9.90;99.90;;;;;;5010822;28;20057;-68
2022/03/18 09:31:37;;;;;;;31.17;6.35;;;10.20;99.90;;;;;;5012088;28;20116;-69
2022/03/18 09:34:04;;;;;;;21.00;6.32;;;10.90;99.90;;;;;;5012493;28;20200;-69
2022/03/18 09:36:31;;;;;;;;;;;10.40;99.90;;;;;;5012627;28;20053;-69
2022/03/18 09:38:57;;;;;;;36.50;6.70;;;10.20;99.90;;;;;;5012267;28;19928;-68
2022/03/18 09:41:23;;;;;;;28.05;6.43;;;9.90;99.90;;;;;;5027759;28;20129;-68
2022/03/18 09:43:49;;;;;;;30.65;5.70;;;10.50;99.90;;;;;;5011096;28;20085;-68
2022/03/18 09:46:17;;;;;;;24.85;6.43;;;10.50;99.90;;;;;;5012060;28;20049;-68
2022/03/18 09:48:44;;;;;;;29.45;5.75;;;11.40;99.90;;;;;;5012120;28;20049;-68
2022/03/18 09:51:10;;;;;;;27.25;5.57;;;10.40;99.90;;;;;;5012369;28;20478;-68
2022/03/18 09:53:36;;;;;;;24.42;5.68;;;10.30;99.90;;;;;;5012094;28;20077;-68
2022/03/18 09:56:03;;;;;;;34.60;6.22;;;10.10;99.90;;;;;;5012202;28;20046;-68
2022/03/18 09:58:29;;;;;;;22.27;4.68;;;10.30;99.90;;;;;;5013294;28;20417;-68
2022/03/18 10:00:58;;;;;;;26.08;6.00;;;10.50;99.90;;;;;;5015590;28;20053;-68
2022/03/18 10:03:35;;;;;;;19.00;5.03;;;10.50;99.90;;;;;;5015909;28;20042;-68
2022/03/18 10:06:03;;;;;;;26.45;5.63;;;10.90;99.90;;;;;;5015852;28;20521;-69
2022/03/18 10:08:44;;;;;;;24.02;5.93;;;10.70;99.90;;;;;;5015722;28;20081;-69
2022/03/18 10:11:15;;;;;;;25.42;5.00;;;10.90;99.90;;;;;;5030688;28;20042;-68
2022/03/18 10:14:03;;;;;;;29.25;5.28;;;12.00;99.90;;;;;;5015577;28;20398;-68
2022/03/18 10:16:46;;;;;;;29.00;5.90;;;10.90;99.90;;;;;;5015652;28;20065;-68
2022/03/18 10:19:15;;;;;;;21.02;5.43;;;10.70;99.90;;;;;;5015209;28;20133;-69
2022/03/18 10:21:50;;;;;;;28.58;5.38;;;10.60;99.90;;;;;;5015330;28;20046;-68
2022/03/18 10:24:17;;;;;;;22.17;5.00;;;11.30;99.90;;;;;;5011330;28;20041;-69
2022/03/18 10:26:42;;;;;;;;;;;11.10;99.90;;;;;;5015835;28;20050;-69
2022/03/18 10:29:14;;;;;;;18.80;5.60;;;12.20;99.90;;;;;;5014927;28;20374;-68
2022/03/18 10:31:45;;;;;;;26.20;6.32;;;11.10;99.90;;;;;;5014738;28;20104;-68
2022/03/18 10:37:06;;;;;;;19.95;5.50;;;11.20;99.90;;;;;;5014693;28;20061;-67
2022/03/18 10:39:40;;;;;;;21.05;5.88;;;11.30;99.90;;;;;;5015053;28;20057;-67
2022/03/18 10:42:14;;;;;;;24.00;5.53;;;12.10;99.90;;;;;;5014687;28;20046;-68
2022/03/18 10:44:49;;;;;;;28.02;5.53;;;12.70;99.90;;;;;;5013716;28;20104;-68
2022/03/18 10:47:23;;;;;;;20.80;6.20;;;11.20;99.90;;;;;;5014833;28;20057;-67
2022/03/18 10:49:49;;;;;;;22.83;6.05;;;11.60;99.90;;;;;;5014191;28;20050;-70
2022/03/18 10:52:15;;;;;;;33.05;5.78;;;11.50;99.90;;;;;;5011031;28;20050;-67
2022/03/18 10:54:41;;;;;;;27.38;5.90;;;11.80;99.90;;;;;;5008792;28;20050;-67
2022/03/18 10:57:06;;;;;;;17.75;5.57;;;11.90;99.90;;;;;;5005580;28;20038;-67
2022/03/18 10:59:32;;;;;;;24.23;6.22;;;11.70;99.90;;;;;;5012401;28;20050;-67
2022/03/18 11:01:59;;;;;;;28.73;5.80;;;11.80;99.90;;;;;;5012878;28;20052;-67
2022/03/18 11:04:26;;;;;;;22.88;5.65;;;12.60;99.90;;;;;;5011941;28;20041;-71
2022/03/18 11:12:26;;;;;;;28.15;5.38;;;12.10;99.90;;;;;;5013623;28;20064;-68
2022/03/18 11:14:55;;;;;;;24.08;5.65;;;11.90;99.90;;;;;;5011616;28;20057;-68
2022/03/18 11:17:21;;;;;;;19.67;5.20;;;12.00;99.90;;;;;;5012683;28;20045;-68
2022/03/18 11:19:47;;;;;;;26.02;5.82;;;11.80;99.90;;;;;;5012939;28;20054;-68
2022/03/18 11:22:16;;;;;;;22.60;5.47;;;12.20;99.90;;;;;;5008917;28;20041;-68
2022/03/18 11:24:45;;;;;;;26.27;5.40;;;13.20;99.90;;;;;;5011446;28;20502;-68
2022/03/18 11:27:12;;;;;;;24.77;5.68;;;11.70;99.90;;;;;;5014137;28;20151;-67
2022/03/18 11:29:40;;;;;;;23.77;5.10;;;12.30;99.90;;;;;;5014178;28;20060;-67
2022/03/18 11:32:17;;;;;;;27.88;5.75;;;11.80;99.90;;;;;;5013993;28;20048;-67
2022/03/18 11:34:52;;;;;;;28.08;5.70;;;11.90;99.90;;;;;;5013819;28;20561;-67
2022/03/18 11:37:19;;;;;;;21.10;5.28;;;11.80;99.90;;;;;;5012576;28;20064;-67
2022/03/18 11:39:46;;;;;;;23.70;5.32;;;11.80;99.90;;;;;;5013978;28;20151;-68
2022/03/18 11:42:20;;;;;;;19.00;4.75;;;11.80;99.90;;;;;;5011133;28;20125;-67
2022/03/18 11:44:56;;;;;;;30.92;5.43;;;11.90;99.90;;;;;;5006308;28;20046;-68
2022/03/18 11:47:33;;;;;;;30.05;5.55;;;12.20;99.90;;;;;;5006499;28;20057;-74
2022/03/18 11:50:00;;;;;;;33.92;5.53;;;13.10;99.90;;;;;;5001946;28;20498;-67
2022/03/18 11:52:26;;;;;;;23.88;4.70;;;12.30;99.90;;;;;;5012104;28;20045;-68
2022/03/18 11:55:00;;;;;;;26.95;7.30;;;12.40;99.90;;;;;;5012666;28;20050;-68
2022/03/18 11:57:33;;;;;;;25.35;4.90;;;13.80;99.90;;;;;;5009492;28;20176;-68
2022/03/18 12:00:05;;;;;;;24.35;4.43;;;12.70;99.90;;;;;;5012565;28;20088;-67
2022/03/18 12:02:38;;;;;;;25.88;5.68;;;12.40;99.90;;;;;;5011207;28;20549;-67
2022/03/18 12:05:05;;;;;;;23.63;4.60;;;13.30;99.90;;;;;;5012122;28;20498;-67
2022/03/18 12:07:47;;;;;;;28.17;5.70;;;12.30;99.90;;;;;;5012772;28;20099;-67
2022/03/18 12:10:14;;;;;;;22.35;4.22;;;12.20;99.90;;;;;;5011358;28;20212;-67
2022/03/18 12:12:41;;;;;;;19.27;5.03;;;12.60;99.90;;;;;;5010129;28;20517;-67
2022/03/18 12:15:12;;;;;;;25.98;5.70;;;12.20;99.90;;;;;;5012520;28;20077;-67
2022/03/18 12:17:42;;;;;;;31.48;4.90;;;12.20;99.90;;;;;;5012499;28;20061;-68
2022/03/18 12:20:10;;;;;;;25.27;5.22;;;12.50;99.90;;;;;;5011648;28;20542;-67
2022/03/18 12:22:41;;;;;;;27.65;4.47;;;12.50;99.90;;;;;;5010812;28;20065;-67
2022/03/18 12:25:08;;;;;;;26.02;4.43;;;12.30;99.90;;;;;;5012409;28;20056;-67
2022/03/18 12:27:36;;;;;;;29.05;5.22;;;12.30;99.90;;;;;;5012047;28;20049;-68
2022/03/18 12:30:07;;;;;;;28.00;5.05;;;12.60;99.90;;;;;;5012294;28;20116;-67
2022/03/18 12:32:37;;;;;;;25.63;4.70;;;12.40;99.90;;;;;;5009965;28;20512;-67
2022/03/18 12:35:04;;;;;;;27.38;5.63;;;13.60;99.90;;;;;;5010824;28;20049;-68
2022/03/18 12:37:31;;;;;;;27.00;4.75;;;12.40;99.90;;;;;;5006282;28;20065;-67
2022/03/18 12:40:10;;;;;;;30.52;6.32;;;12.60;99.90;;;;;;5011831;28;20587;-68
2022/03/18 12:42:58;;;;;;;23.02;4.38;;;12.70;99.90;;;;;;5010634;28;20155;-68
2022/03/18 12:45:33;;;;;;;17.75;4.10;;;12.60;99.90;;;;;;5010642;28;20188;-68
2022/03/18 12:48:03;;;;;;;21.48;4.90;;;12.90;99.90;;;;;;5006561;28;20055;-67
2022/03/18 12:50:33;;;;;;;25.67;5.22;;;12.80;99.90;;;;;;4992419;28;20046;-67
2022/03/18 12:53:20;;;;;;;24.88;4.78;;;12.80;99.90;;;;;;4993347;28;20139;-67
2022/03/18 12:55:51;;;;;;;22.08;4.80;;;13.00;99.90;;;;;;4993559;28;20050;-69
2022/03/18 12:58:18;;;;;;;26.35;5.45;;;12.70;99.90;;;;;;4993398;28;20355;-68
2022/03/18 13:00:46;;;;;;;25.25;4.40;;;12.90;99.90;;;;;;5008356;28;20053;-67
2022/03/18 13:03:23;;;;;;;25.23;5.18;;;13.20;99.90;;;;;;4993363;28;20490;-68
2022/03/18 13:05:52;;;;;;;23.98;4.43;;;13.10;99.90;;;;;;4992392;28;20082;-67
2022/03/18 13:08:21;;;;;;;23.02;4.53;;;15.10;99.90;;;;;;4993329;28;20266;-68
2022/03/18 13:10:59;;;;;;;22.42;4.20;;;13.00;99.90;;;;;;4992282;28;20054;-68
2022/03/18 13:13:29;;;;;;;24.83;4.60;;;13.20;99.90;;;;;;4993249;28;20038;-67
2022/03/18 13:16:01;;;;;;;28.05;4.72;;;13.40;99.90;;;;;;4992913;28;20522;-67
2022/03/18 13:18:35;;;;;;;26.05;5.57;;;13.20;99.90;;;;;;4993186;28;20054;-68
2022/03/18 13:21:09;;;;;;;20.88;4.57;;;13.80;99.90;;;;;;4993221;28;20054;-68
2022/03/18 13:23:38;;;;;;;27.20;5.32;;;13.70;99.90;;;;;;4993181;28;20108;-68
2022/03/18 13:26:04;;;;;;;26.42;4.25;;;13.40;99.90;;;;;;4993114;28;20046;-67